Time;durP1;ratioP1;P1;durP2;ratioP2;P2;SDS_P1;SDS_P2;PMS_P1;PMS_P2;Temp;Humidity;BMP_temperature;BMP_pressure;BME280_temperature;BME280_humidity;BME280_pressure;Samples;Min_cycle;Max_cycle;Signal;HPM_P1;HPM_P2
2023/04/25 00:02:25;;;;;;;12.55;2.15;;;5.10;99.90;;;;;;5047937;28;20489;-75
2023/04/25 00:04:50;;;;;;;13.68;2.55;;;5.10;99.90;;;;;;5050243;28;20116;-76
2023/04/25 00:07:16;;;;;;;8.65;1.83;;;5.10;99.90;;;;;;5049272;28;20489;-76
2023/04/25 00:09:42;;;;;;;11.55;2.15;;;5.10;99.90;;;;;;5050278;28;20028;-76
2023/04/25 00:12:07;;;;;;;16.05;3.42;;;5.00;99.90;;;;;;5048167;28;20040;-76
2023/04/25 00:14:33;;;;;;;9.75;2.60;;;5.00;99.90;;;;;;5049296;28;20053;-76
2023/04/25 00:17:00;;;;;;;12.30;2.75;;;5.00;99.90;;;;;;5049543;28;20056;-76
2023/04/25 00:19:28;;;;;;;12.20;3.10;;;5.00;99.90;;;;;;5049344;28;20447;-75
2023/04/25 00:21:56;;;;;;;11.48;2.47;;;5.00;99.90;;;;;;5049554;28;20021;-76
2023/04/25 00:24:22;;;;;;;13.55;3.72;;;5.00;99.90;;;;;;5049024;28;20129;-75
2023/04/25 00:26:47;;;;;;;14.38;3.00;;;4.90;99.90;;;;;;5051135;28;20166;-75
2023/04/25 00:29:13;;;;;;;11.48;3.25;;;5.00;99.90;;;;;;5053460;28;20025;-75
2023/04/25 00:31:38;;;;;;;11.93;3.22;;;5.00;99.90;;;;;;5052131;28;20033;-75
2023/04/25 00:34:06;;;;;;;12.43;3.08;;;5.10;99.90;;;;;;5050829;28;20029;-75
2023/04/25 00:36:31;;;;;;;8.40;2.80;;;5.10;99.90;;;;;;5043754;28;20028;-76
2023/04/25 00:38:57;;;;;;;15.23;3.78;;;5.10;99.90;;;;;;5053148;28;20170;-76
2023/04/25 00:41:23;;;;;;;17.00;3.88;;;5.10;99.90;;;;;;5052130;28;20468;-75
2023/04/25 00:43:50;;;;;;;12.80;3.15;;;5.10;99.90;;;;;;5052174;28;20033;-75
2023/04/25 00:46:15;;;;;;;8.90;2.92;;;5.10;99.90;;;;;;5051050;28;20392;-75
2023/04/25 00:48:41;;;;;;;14.63;4.07;;;5.10;99.90;;;;;;5052971;28;20017;-76
2023/04/25 00:51:06;;;;;;;16.63;3.83;;;5.10;99.90;;;;;;5052500;28;20028;-75
2023/04/25 00:53:32;;;;;;;16.95;4.10;;;5.10;99.90;;;;;;5052027;28;20021;-75
2023/04/25 00:55:58;;;;;;;7.63;2.75;;;5.00;99.90;;;;;;5052517;28;20045;-76
2023/04/25 00:58:24;;;;;;;12.27;3.33;;;5.00;99.90;;;;;;5050527;28;20039;-75
2023/04/25 01:00:51;;;;;;;14.90;3.90;;;4.90;99.90;;;;;;5051327;28;20047;-76
2023/04/25 01:03:19;;;;;;;16.08;3.45;;;4.90;99.90;;;;;;5051808;28;20052;-75
2023/04/25 01:05:45;;;;;;;11.60;3.28;;;4.80;99.90;;;;;;5052267;28;20048;-75
2023/04/25 01:08:11;;;;;;;14.70;3.88;;;4.70;99.90;;;;;;5050870;28;20477;-76
2023/04/25 01:10:36;;;;;;;12.75;3.28;;;4.70;99.90;;;;;;5055349;28;20024;-76
2023/04/25 01:13:02;;;;;;;14.52;2.83;;;4.70;99.90;;;;;;5049843;28;20405;-75
2023/04/25 01:15:28;;;;;;;12.73;3.38;;;4.70;99.90;;;;;;5051288;28;20077;-76
2023/04/25 01:17:55;;;;;;;19.08;4.40;;;4.60;99.90;;;;;;5051487;28;20047;-75
2023/04/25 01:20:22;;;;;;;12.45;3.65;;;4.60;99.90;;;;;;5050608;28;20021;-75
2023/04/25 01:22:49;;;;;;;14.85;3.63;;;4.60;99.90;;;;;;5054347;28;20473;-76
2023/04/25 01:25:14;;;;;;;16.02;4.90;;;4.60;99.90;;;;;;5051083;28;20094;-75
2023/04/25 01:27:40;;;;;;;15.05;3.83;;;4.60;99.90;;;;;;5052858;28;20029;-75
2023/04/25 01:30:07;;;;;;;17.50;4.45;;;4.60;99.90;;;;;;5051628;28;20064;-75
2023/04/25 01:32:38;;;;;;;22.67;4.25;;;4.60;99.90;;;;;;5050403;28;20032;-75
2023/04/25 01:35:10;;;;;;;15.68;3.47;;;4.60;99.90;;;;;;5053519;28;20393;-75
2023/04/25 01:37:37;;;;;;;15.15;4.32;;;4.60;99.90;;;;;;5049275;28;20029;-75
2023/04/25 01:40:05;;;;;;;18.80;4.57;;;4.60;99.90;;;;;;5051976;28;20025;-75
2023/04/25 01:42:31;;;;;;;20.27;5.20;;;4.60;99.90;;;;;;5050269;28;20102;-75
2023/04/25 01:44:57;;;;;;;16.50;4.30;;;4.60;99.90;;;;;;5051198;28;20491;-75
2023/04/25 01:47:22;;;;;;;12.88;4.85;;;4.60;99.90;;;;;;5051498;28;20029;-75
2023/04/25 01:49:48;;;;;;;21.40;4.97;;;4.60;99.90;;;;;;5051821;28;20116;-75
2023/04/25 01:52:13;;;;;;;17.80;4.55;;;4.50;99.90;;;;;;5048329;28;20028;-75
2023/04/25 01:54:43;;;;;;;20.55;4.78;;;4.50;99.90;;;;;;5050940;28;20047;-76
2023/04/25 01:57:09;;;;;;;22.13;4.22;;;4.40;99.90;;;;;;5038842;28;20052;-76
2023/04/25 01:59:36;;;;;;;16.38;4.57;;;4.40;99.90;;;;;;5050988;28;20033;-75
2023/04/25 02:02:03;;;;;;;16.52;3.83;;;4.30;99.90;;;;;;5049780;28;20108;-75
2023/04/25 02:04:29;;;;;;;14.68;4.20;;;4.30;99.90;;;;;;5048849;28;20025;-75
2023/04/25 02:06:55;;;;;;;19.80;4.95;;;4.30;99.90;;;;;;5058119;28;20025;-76
2023/04/25 02:09:21;;;;;;;16.40;4.55;;;4.30;99.90;;;;;;5049435;28;20025;-75
2023/04/25 02:11:46;;;;;;;20.73;4.60;;;4.20;99.90;;;;;;5049966;28;20090;-75
2023/04/25 02:14:12;;;;;;;21.33;4.82;;;4.20;99.90;;;;;;5051103;28;20072;-75
2023/04/25 02:16:39;;;;;;;30.65;5.68;;;4.20;99.90;;;;;;5050566;28;20064;-75
2023/04/25 02:19:05;;;;;;;16.85;4.25;;;4.20;99.90;;;;;;5049722;28;20131;-75
2023/04/25 02:21:31;;;;;;;21.58;4.85;;;4.20;99.90;;;;;;5049789;28;20120;-75
2023/04/25 02:23:56;;;;;;;19.70;4.63;;;4.20;99.90;;;;;;5050682;28;20024;-75
2023/04/25 02:26:23;;;;;;;17.50;4.43;;;4.10;99.90;;;;;;5041606;28;20022;-75
2023/04/25 02:28:49;;;;;;;21.40;4.13;;;4.10;99.90;;;;;;5044240;28;20067;-75
2023/04/25 02:31:15;;;;;;;22.38;4.32;;;4.10;99.90;;;;;;5043648;28;20107;-75
2023/04/25 02:33:41;;;;;;;21.88;4.85;;;4.10;99.90;;;;;;5050159;28;20148;-75
2023/04/25 02:36:07;;;;;;;17.15;4.28;;;4.00;99.90;;;;;;5050244;28;20095;-75
2023/04/25 02:38:33;;;;;;;20.42;4.72;;;4.00;99.90;;;;;;5050031;28;20021;-75
2023/04/25 02:40:58;;;;;;;25.98;5.47;;;3.90;99.90;;;;;;5050710;28;20508;-75
2023/04/25 02:43:24;;;;;;;22.90;5.25;;;3.90;99.90;;;;;;5051935;28;20063;-75
2023/04/25 02:45:49;;;;;;;25.25;4.78;;;3.80;99.90;;;;;;5048457;28;20033;-75
2023/04/25 02:48:15;;;;;;;25.48;4.35;;;3.80;99.90;;;;;;5049075;28;20021;-75
2023/04/25 02:50:41;;;;;;;26.33;4.57;;;3.80;99.90;;;;;;5049827;28;20103;-75
2023/04/25 02:53:06;;;;;;;18.02;4.95;;;3.70;99.90;;;;;;5048989;28;20420;-75
2023/04/25 02:55:32;;;;;;;20.38;5.50;;;3.70;99.90;;;;;;5056645;28;20502;-75
2023/04/25 02:57:57;;;;;;;18.95;4.90;;;3.70;99.90;;;;;;5050199;28;20017;-75
2023/04/25 03:00:23;;;;;;;17.63;5.50;;;3.70;99.90;;;;;;5046539;28;20036;-75
2023/04/25 03:02:48;;;;;;;24.60;5.25;;;3.70;99.90;;;;;;5048900;28;20043;-75
2023/04/25 03:05:14;;;;;;;23.20;4.95;;;3.70;99.90;;;;;;5048931;28;20040;-75
2023/04/25 03:07:40;;;;;;;25.48;4.70;;;3.70;99.90;;;;;;5056892;28;20078;-75
2023/04/25 03:10:06;;;;;;;22.40;5.22;;;3.70;99.90;;;;;;5050735;28;20072;-75
2023/04/25 03:12:32;;;;;;;21.20;4.82;;;3.60;99.90;;;;;;5048412;28;20039;-75
2023/04/25 03:14:58;;;;;;;15.98;4.80;;;3.60;99.90;;;;;;5048402;28;20067;-76
2023/04/25 03:17:23;;;;;;;23.20;5.18;;;3.60;99.90;;;;;;5047067;28;20025;-75
2023/04/25 03:19:49;;;;;;;23.60;6.07;;;3.60;99.90;;;;;;5045347;28;20036;-75
2023/04/25 03:22:14;;;;;;;18.17;4.97;;;3.50;99.90;;;;;;5046938;28;20024;-75
2023/04/25 03:24:40;;;;;;;19.40;4.95;;;3.50;99.90;;;;;;5050863;28;20028;-75
2023/04/25 03:27:06;;;;;;;17.70;5.00;;;3.50;99.90;;;;;;5049626;28;20197;-75
2023/04/25 03:29:31;;;;;;;21.35;5.28;;;3.50;99.90;;;;;;5050077;28;20037;-75
2023/04/25 03:31:57;;;;;;;20.48;5.30;;;3.50;99.90;;;;;;5048114;28;20033;-76
2023/04/25 03:34:23;;;;;;;25.08;5.50;;;3.50;99.90;;;;;;5050176;28;20055;-75
2023/04/25 03:36:49;;;;;;;16.80;4.78;;;3.50;99.90;;;;;;5043445;28;20493;-75
2023/04/25 03:39:15;;;;;;;17.17;5.63;;;3.50;99.90;;;;;;5049465;28;20040;-75
2023/04/25 03:41:40;;;;;;;17.60;5.68;;;3.50;99.90;;;;;;5055820;28;20040;-75
2023/04/25 03:44:06;;;;;;;14.68;4.10;;;3.60;99.90;;;;;;5050321;28;20032;-75
2023/04/25 03:46:31;;;;;;;22.63;5.43;;;3.60;99.90;;;;;;5050057;28;20033;-75
2023/04/25 03:48:57;;;;;;;21.85;4.97;;;3.50;99.90;;;;;;5050691;28;20104;-75
2023/04/25 03:51:22;;;;;;;20.45;5.15;;;3.50;99.90;;;;;;5050141;28;20025;-75
2023/04/25 03:53:48;;;;;;;21.50;4.95;;;3.50;99.90;;;;;;5051388;28;20024;-75
2023/04/25 03:56:13;;;;;;;18.73;6.00;;;3.50;99.90;;;;;;5049167;28;20049;-75
2023/04/25 03:58:39;;;;;;;20.55;6.60;;;3.40;99.90;;;;;;5054132;28;20021;-75
2023/04/25 04:01:07;;;;;;;16.00;5.07;;;3.40;99.90;;;;;;5053236;28;20017;-75
2023/04/25 04:03:35;;;;;;;17.25;4.28;;;3.40;99.90;;;;;;5051678;28;20025;-75
2023/04/25 04:06:00;;;;;;;19.73;5.50;;;3.50;99.90;;;;;;5053406;28;20087;-75
2023/04/25 04:08:26;;;;;;;37.05;6.82;;;3.50;99.90;;;;;;5050596;28;20035;-75
2023/04/25 04:10:51;;;;;;;18.10;4.88;;;3.50;99.90;;;;;;5053396;28;20388;-75
2023/04/25 04:13:17;;;;;;;23.08;6.13;;;3.50;99.90;;;;;;5052381;28;20021;-75
2023/04/25 04:15:42;;;;;;;21.35;5.38;;;3.50;99.90;;;;;;5062959;28;20045;-75
2023/04/25 04:18:08;;;;;;;24.58;6.65;;;3.50;99.90;;;;;;5052620;28;20037;-75
2023/04/25 04:20:33;;;;;;;22.65;6.22;;;3.50;99.90;;;;;;5052276;28;20025;-75
2023/04/25 04:22:59;;;;;;;19.38;6.07;;;3.50;99.90;;;;;;5051615;28;20082;-75
2023/04/25 04:25:24;;;;;;;22.13;6.50;;;3.50;99.90;;;;;;5052140;28;20025;-75
2023/04/25 04:27:54;;;;;;;21.65;5.60;;;3.60;99.90;;;;;;5061228;28;20028;-75
2023/04/25 04:30:21;;;;;;;22.90;6.68;;;3.60;99.90;;;;;;5046121;28;20103;-75
2023/04/25 04:32:48;;;;;;;25.60;6.95;;;3.70;99.90;;;;;;5052757;28;20413;-75
2023/04/25 04:35:14;;;;;;;19.92;6.70;;;3.70;99.90;;;;;;5052628;28;20040;-75
2023/04/25 04:37:39;;;;;;;23.50;7.18;;;3.80;99.90;;;;;;5046800;28;20025;-75
2023/04/25 04:40:06;;;;;;;27.55;6.68;;;3.80;99.90;;;;;;5040687;28;20029;-75
2023/04/25 04:42:32;;;;;;;24.83;6.53;;;3.90;99.90;;;;;;5049752;28;20033;-75
2023/04/25 04:44:58;;;;;;;21.48;6.35;;;4.00;99.90;;;;;;5055247;28;20021;-75
2023/04/25 04:47:25;;;;;;;19.42;5.68;;;4.00;99.90;;;;;;5050537;28;20029;-75
2023/04/25 04:49:51;;;;;;;15.68;6.00;;;4.00;99.90;;;;;;5049666;28;20051;-75
2023/04/25 04:52:16;;;;;;;19.17;5.72;;;4.10;99.90;;;;;;5052868;28;20441;-75
2023/04/25 04:54:42;;;;;;;29.52;6.43;;;4.20;99.90;;;;;;5052178;28;20663;-75
2023/04/25 04:57:07;;;;;;;23.13;6.65;;;4.20;99.90;;;;;;5046724;28;20539;-75
2023/04/25 04:59:33;;;;;;;23.27;6.57;;;4.30;99.90;;;;;;5046660;28;20034;-75
2023/04/25 05:01:58;;;;;;;21.10;5.88;;;4.40;99.90;;;;;;5054185;28;20508;-75
2023/04/25 05:04:24;;;;;;;16.83;6.03;;;4.40;99.90;;;;;;5052855;28;20025;-75
2023/04/25 05:06:49;;;;;;;18.02;4.93;;;4.50;99.90;;;;;;5053357;28;20021;-75
2023/04/25 05:09:15;;;;;;;24.40;6.55;;;4.50;99.90;;;;;;5051690;28;20500;-75
2023/04/25 05:11:40;;;;;;;13.52;4.43;;;4.60;99.90;;;;;;5047513;28;20037;-75
2023/04/25 05:14:06;;;;;;;15.65;4.55;;;4.70;99.90;;;;;;5050445;28;20477;-75
2023/04/25 05:16:31;;;;;;;16.48;4.78;;;4.70;99.90;;;;;;5051443;28;20492;-75
2023/04/25 05:18:57;;;;;;;17.48;4.20;;;4.80;99.90;;;;;;5051709;28;20025;-75
2023/04/25 05:21:22;;;;;;;19.33;4.70;;;4.90;99.90;;;;;;5052817;28;20039;-75
2023/04/25 05:23:48;;;;;;;10.48;3.50;;;4.90;99.90;;;;;;5052449;28;20120;-75
2023/04/25 05:26:13;;;;;;;19.85;4.30;;;5.00;99.90;;;;;;5052032;28;20025;-75
2023/04/25 05:28:40;;;;;;;16.52;5.00;;;5.00;99.90;;;;;;5051707;28;20040;-74
2023/04/25 05:31:06;;;;;;;22.02;4.10;;;5.10;99.90;;;;;;5045875;28;20029;-75
2023/04/25 05:33:32;;;;;;;12.55;3.78;;;5.10;99.90;;;;;;5044903;28;20481;-75
2023/04/25 05:35:57;;;;;;;13.35;4.10;;;5.20;99.90;;;;;;5052809;28;20510;-75
2023/04/25 05:38:23;;;;;;;10.95;3.00;;;5.20;99.90;;;;;;5052581;28;20422;-75
2023/04/25 05:40:48;;;;;;;20.00;3.78;;;5.30;99.90;;;;;;5067795;28;20042;-75
2023/04/25 05:43:14;;;;;;;11.90;3.05;;;5.30;99.90;;;;;;5049799;28;20060;-76
2023/04/25 05:45:40;;;;;;;13.90;3.30;;;5.40;99.90;;;;;;5048828;28;20037;-76
2023/04/25 05:48:06;;;;;;;15.63;2.60;;;5.50;99.90;;;;;;5046472;28;20061;-75
2023/04/25 05:50:31;;;;;;;8.65;2.17;;;5.50;99.90;;;;;;5041494;28;20072;-76
2023/04/25 05:52:57;;;;;;;10.73;2.22;;;5.60;99.90;;;;;;5039060;28;20029;-76
2023/04/25 05:55:22;;;;;;;9.38;2.10;;;5.60;99.90;;;;;;5038021;28;20041;-75
2023/04/25 05:57:48;;;;;;;9.73;2.20;;;5.70;99.90;;;;;;5032626;28;20032;-76
2023/04/25 06:00:15;;;;;;;11.77;1.67;;;5.80;99.90;;;;;;5038479;28;20488;-75
2023/04/25 06:02:41;;;;;;;13.23;1.77;;;5.80;99.90;;;;;;5028543;28;20036;-75
2023/04/25 06:05:07;;;;;;;7.68;1.20;;;5.90;99.90;;;;;;5050935;28;20029;-75
2023/04/25 06:07:33;;;;;;;12.98;1.25;;;5.90;99.90;;;;;;5047571;28;20029;-74
2023/04/25 06:09:59;;;;;;;9.93;1.00;;;6.00;99.90;;;;;;5028986;28;20405;-75
2023/04/25 06:12:25;;;;;;;10.68;1.20;;;6.00;99.90;;;;;;5036879;28;20032;-75
2023/04/25 06:14:51;;;;;;;10.43;1.38;;;6.10;99.90;;;;;;5044863;28;20052;-75
2023/04/25 06:17:16;;;;;;;14.02;1.48;;;6.10;99.90;;;;;;5028911;28;20457;-74
2023/04/25 06:19:42;;;;;;;9.50;1.98;;;6.20;99.90;;;;;;5031237;28;20445;-75
2023/04/25 06:22:08;;;;;;;10.73;1.10;;;6.40;99.90;;;;;;5032630;28;20477;-75
2023/04/25 06:24:33;;;;;;;12.63;1.38;;;6.50;99.90;;;;;;5036397;28;20370;-75
2023/04/25 06:26:59;;;;;;;9.70;1.02;;;6.60;99.90;;;;;;5044077;28;20124;-75
2023/04/25 06:29:25;;;;;;;9.05;1.20;;;6.70;99.90;;;;;;5050995;28;20019;-75
2023/04/25 06:31:50;;;;;;;4.30;0.73;;;6.70;99.90;;;;;;5047243;28;20051;-75
2023/04/25 06:34:17;;;;;;;11.07;1.05;;;6.90;99.90;;;;;;5043898;28;20362;-76
2023/04/25 06:36:44;;;;;;;7.43;0.90;;;6.90;99.90;;;;;;5047657;28;20037;-76
2023/04/25 06:39:09;;;;;;;7.25;1.38;;;6.90;99.90;;;;;;5043160;28;20185;-74
2023/04/25 06:41:35;;;;;;;16.30;2.30;;;7.00;99.90;;;;;;5036571;28;20045;-74
2023/04/25 06:44:01;;;;;;;10.63;1.13;;;7.10;99.90;;;;;;5042266;28;20034;-74
2023/04/25 06:46:26;;;;;;;8.98;0.95;;;7.30;99.90;;;;;;5048663;28;20420;-75
2023/04/25 06:48:52;;;;;;;11.18;1.20;;;7.40;99.90;;;;;;5030629;28;20032;-75
2023/04/25 06:51:17;;;;;;;4.95;1.45;;;7.50;99.90;;;;;;5027391;28;20036;-75
2023/04/25 06:53:43;;;;;;;6.32;0.80;;;7.50;99.90;;;;;;5030279;28;20021;-75
2023/04/25 06:56:09;;;;;;;12.60;0.95;;;7.50;99.90;;;;;;5027651;28;20068;-74
2023/04/25 06:58:34;;;;;;;7.25;0.88;;;7.50;99.90;;;;;;5023581;28;20387;-74
2023/04/25 07:01:00;;;;;;;9.63;0.90;;;7.60;99.90;;;;;;5026599;28;20409;-75
2023/04/25 07:03:26;;;;;;;7.90;0.60;;;7.60;99.90;;;;;;5033604;28;20059;-74
2023/04/25 07:05:51;;;;;;;10.35;1.35;;;7.70;99.90;;;;;;5031382;28;20029;-75
2023/04/25 07:08:17;;;;;;;15.70;1.25;;;7.80;99.90;;;;;;5026055;28;20025;-74
2023/04/25 07:10:46;;;;;;;11.45;1.35;;;7.90;99.90;;;;;;5028963;28;20022;-74
2023/04/25 07:13:12;;;;;;;5.63;0.70;;;8.00;99.90;;;;;;5032630;28;22276;-75
2023/04/25 07:15:37;;;;;;;6.53;0.80;;;8.00;99.90;;;;;;5035778;28;20132;-75
2023/04/25 07:18:03;;;;;;;10.65;1.02;;;8.10;99.90;;;;;;5032101;28;20032;-76
2023/04/25 07:20:30;;;;;;;9.32;0.70;;;8.10;99.90;;;;;;5032272;28;20539;-76
2023/04/25 07:22:56;;;;;;;10.25;0.73;;;8.00;99.90;;;;;;5035293;28;20029;-76
2023/04/25 07:25:22;;;;;;;7.38;0.77;;;8.00;99.90;;;;;;5048578;28;20024;-76
2023/04/25 07:27:48;;;;;;;7.93;0.95;;;8.00;99.90;;;;;;5061086;28;20615;-76
2023/04/25 07:30:14;;;;;;;9.63;0.60;;;8.10;99.90;;;;;;5052562;28;20078;-76
2023/04/25 07:32:39;;;;;;;13.88;1.52;;;8.20;99.90;;;;;;5061174;28;20029;-76
2023/04/25 07:35:06;;;;;;;7.47;0.90;;;8.20;99.90;;;;;;5047090;28;20400;-76
2023/04/25 07:37:33;;;;;;;13.55;1.80;;;8.10;99.90;;;;;;5039711;28;20112;-76
2023/04/25 07:39:58;;;;;;;9.38;0.70;;;8.10;99.90;;;;;;5054301;28;20079;-76
2023/04/25 07:42:24;;;;;;;7.90;0.50;;;8.20;99.90;;;;;;5054359;28;20060;-76
2023/04/25 07:44:51;;;;;;;8.48;0.70;;;8.20;99.90;;;;;;5052548;28;20033;-76
2023/04/25 07:47:18;;;;;;;7.57;0.90;;;8.20;99.90;;;;;;5041788;28;20021;-76
2023/04/25 07:49:45;;;;;;;6.40;0.50;;;8.10;99.90;;;;;;5052281;28;20025;-76
2023/04/25 07:52:10;;;;;;;7.22;0.75;;;8.10;99.90;;;;;;5054287;28;20486;-76
2023/04/25 07:54:36;;;;;;;9.23;0.52;;;8.10;99.90;;;;;;5053744;28;20116;-76
2023/04/25 07:57:02;;;;;;;9.85;0.63;;;8.20;99.90;;;;;;5052288;28;20039;-76
2023/04/25 07:59:28;;;;;;;7.28;0.80;;;8.30;99.90;;;;;;5050891;28;20397;-77
2023/04/25 08:01:53;;;;;;;8.00;0.55;;;8.50;99.90;;;;;;5053456;28;20033;-76
2023/04/25 08:04:19;;;;;;;7.35;0.70;;;8.60;99.90;;;;;;5053538;28;20107;-76
2023/04/25 08:06:45;;;;;;;9.50;0.50;;;8.70;99.90;;;;;;5050947;28;20385;-77
2023/04/25 08:09:11;;;;;;;8.10;1.08;;;8.90;99.90;;;;;;5050285;28;20033;-76
2023/04/25 08:11:36;;;;;;;11.75;0.57;;;9.10;99.90;;;;;;5053240;28;20029;-76
2023/04/25 08:14:02;;;;;;;10.85;0.68;;;9.10;99.90;;;;;;5054779;28;20379;-77
2023/04/25 08:16:28;;;;;;;8.45;0.60;;;9.20;99.90;;;;;;5054169;28;20041;-76
2023/04/25 08:18:54;;;;;;;7.28;0.90;;;9.20;99.90;;;;;;5054719;28;20035;-76
2023/04/25 08:21:20;;;;;;;9.20;0.70;;;9.10;99.90;;;;;;5049311;28;20091;-77
2023/04/25 08:23:45;;;;;;;9.77;1.67;;;9.20;99.90;;;;;;5053138;28;20025;-76
2023/04/25 08:26:11;;;;;;;8.25;0.50;;;9.30;99.90;;;;;;5051734;28;20035;-76
2023/04/25 08:28:36;;;;;;;7.80;0.63;;;9.50;99.90;;;;;;5053666;28;20599;-76
2023/04/25 08:31:02;;;;;;;9.25;0.43;;;9.60;99.90;;;;;;5053698;28;20155;-76
2023/04/25 08:33:28;;;;;;;3.17;0.38;;;9.70;99.90;;;;;;5052919;28;20025;-78
2023/04/25 08:35:54;;;;;;;8.85;0.50;;;9.70;99.90;;;;;;5043556;28;20043;-77
2023/04/25 08:38:19;;;;;;;7.80;0.70;;;9.80;99.90;;;;;;5043908;28;20094;-77
2023/04/25 08:40:50;;;;;;;6.25;0.82;;;9.80;99.90;;;;;;5047920;28;20036;-77
2023/04/25 08:43:18;;;;;;;7.68;0.80;;;9.90;99.90;;;;;;5049472;28;20025;-77
2023/04/25 08:45:44;;;;;;;7.47;0.47;;;10.00;99.90;;;;;;5048439;28;20037;-76
2023/04/25 08:48:15;;;;;;;7.53;0.45;;;10.00;99.90;;;;;;5045567;28;20013;-77
2023/04/25 08:50:52;;;;;;;3.72;0.30;;;10.00;99.90;;;;;;5040348;28;20078;-77
2023/04/25 08:53:31;;;;;;;8.45;0.57;;;9.90;99.90;;;;;;5043070;28;20029;-76
2023/04/25 08:55:58;;;;;;;2.78;0.30;;;9.80;99.90;;;;;;5048453;28;20063;-76
2023/04/25 08:58:24;;;;;;;5.47;0.50;;;9.70;99.90;;;;;;5047572;28;20021;-76
2023/04/25 09:00:51;;;;;;;3.97;0.32;;;9.50;99.90;;;;;;5053732;28;20043;-76
2023/04/25 09:03:17;;;;;;;8.10;0.30;;;9.50;99.90;;;;;;5051265;28;20028;-77
2023/04/25 09:05:43;;;;;;;4.53;0.40;;;9.60;99.90;;;;;;5044449;28;20539;-77
2023/04/25 09:08:09;;;;;;;4.60;0.50;;;9.60;99.90;;;;;;5045554;28;20071;-77
2023/04/25 09:10:35;;;;;;;6.60;0.40;;;9.60;99.90;;;;;;5048292;28;20586;-77
2023/04/25 09:13:14;;;;;;;5.85;0.50;;;9.60;99.90;;;;;;5049705;28;20021;-76
2023/04/25 09:15:54;;;;;;;4.05;0.40;;;9.70;99.90;;;;;;5053698;28;20044;-77
2023/04/25 09:18:34;;;;;;;4.57;0.40;;;9.70;99.90;;;;;;5036334;28;20033;-77
2023/04/25 09:21:11;;;;;;;3.40;0.30;;;9.60;99.90;;;;;;5052662;28;20467;-77
2023/04/25 09:23:48;;;;;;;2.60;0.30;;;9.50;99.90;;;;;;5044379;28;20025;-77
2023/04/25 09:26:18;;;;;;;2.80;0.40;;;9.60;99.90;;;;;;5046885;28;20037;-77
2023/04/25 09:28:45;;;;;;;2.63;0.25;;;9.60;99.90;;;;;;5046218;28;20131;-77
2023/04/25 09:31:11;;;;;;;6.50;0.38;;;9.70;99.90;;;;;;5045696;28;20031;-77
2023/04/25 09:33:37;;;;;;;4.97;0.75;;;9.90;99.90;;;;;;5045649;28;20029;-77
2023/04/25 09:36:08;;;;;;;5.38;0.40;;;10.10;99.90;;;;;;5048307;28;20029;-76
2023/04/25 09:38:43;;;;;;;4.70;0.32;;;10.30;99.90;;;;;;5035707;28;20037;-80
2023/04/25 09:41:10;;;;;;;4.07;0.30;;;10.50;99.90;;;;;;5046664;28;20026;-78
2023/04/25 09:43:37;;;;;;;4.05;0.30;;;10.40;99.90;;;;;;5043457;28;20029;-78
2023/04/25 09:46:07;;;;;;;2.65;0.47;;;10.50;99.90;;;;;;5047854;28;20017;-78
2023/04/25 09:48:32;;;;;;;6.78;0.50;;;10.60;99.90;;;;;;5051930;28;20029;-78
2023/04/25 09:51:16;;;;;;;8.00;0.60;;;10.50;99.90;;;;;;5052705;28;20078;-77
2023/04/25 09:53:46;;;;;;;2.72;0.30;;;10.40;99.90;;;;;;5038905;28;20053;-77
2023/04/25 09:56:12;;;;;;;6.30;0.30;;;10.10;99.90;;;;;;5046631;28;20064;-77
2023/04/25 09:58:40;;;;;;;7.35;0.30;;;10.00;99.90;;;;;;5047982;28;20029;-78
2023/04/25 10:01:07;;;;;;;6.35;0.65;;;9.90;99.90;;;;;;5039699;28;20115;-77
2023/04/25 10:03:43;;;;;;;3.75;0.40;;;9.70;99.90;;;;;;5040512;28;20026;-77
2023/04/25 10:06:14;;;;;;;6.30;0.40;;;9.60;99.90;;;;;;5048198;28;20037;-78
2023/04/25 10:08:40;;;;;;;6.00;0.38;;;9.50;99.90;;;;;;5044419;28;20492;-77
2023/04/25 10:11:08;;;;;;;3.22;0.50;;;9.50;99.90;;;;;;5042602;28;20072;-77
2023/04/25 10:13:35;;;;;;;5.07;0.22;;;9.40;99.90;;;;;;5034518;28;20074;-77
2023/04/25 10:16:03;;;;;;;1.98;0.30;;;9.40;99.90;;;;;;5050657;28;20036;-77
2023/04/25 10:18:29;;;;;;;8.32;0.50;;;9.30;99.90;;;;;;5046071;28;20029;-77
2023/04/25 10:20:57;;;;;;;5.28;0.40;;;9.30;99.90;;;;;;5042215;28;20091;-78
2023/04/25 10:23:23;;;;;;;2.38;0.52;;;9.50;99.90;;;;;;5040909;28;20052;-77
2023/04/25 10:25:53;;;;;;;1.60;0.20;;;9.90;99.90;;;;;;5058632;28;20036;-77
2023/04/25 10:28:19;;;;;;;2.35;0.20;;;10.10;99.90;;;;;;5053804;28;20494;-77
2023/04/25 10:31:01;;;;;;;1.25;0.20;;;10.30;98.00;;;;;;5051913;28;20028;-77
2023/04/25 10:33:37;;;;;;;3.83;0.30;;;10.50;96.80;;;;;;5050812;28;20100;-77
2023/04/25 10:36:13;;;;;;;4.18;0.20;;;10.60;97.00;;;;;;5050792;28;20044;-77
2023/04/25 10:38:39;;;;;;;4.32;0.65;;;10.90;97.10;;;;;;5051401;28;20029;-77
2023/04/25 10:41:09;;;;;;;2.85;0.22;;;11.00;95.10;;;;;;5049729;28;20403;-77
2023/04/25 10:43:43;;;;;;;1.88;0.25;;;11.10;94.00;;;;;;5032095;28;20072;-78
2023/04/25 10:46:31;;;;;;;4.55;0.30;;;11.10;93.30;;;;;;5050807;28;20029;-78
2023/04/25 10:48:58;;;;;;;4.75;0.30;;;11.10;92.90;;;;;;5051997;28;20020;-77
2023/04/25 10:51:30;;;;;;;5.57;0.40;;;10.90;92.80;;;;;;5051587;28;20043;-77
2023/04/25 10:53:55;;;;;;;2.17;0.22;;;10.90;93.20;;;;;;5051866;28;20028;-77
2023/04/25 10:56:22;;;;;;;4.00;0.40;;;10.80;93.10;;;;;;5050926;28;20045;-78
2023/04/25 10:58:49;;;;;;;4.82;0.65;;;10.70;93.70;;;;;;5051822;28;20033;-77
2023/04/25 11:01:19;;;;;;;4.10;0.30;;;10.70;94.10;;;;;;5052631;28;20029;-77
2023/04/25 11:03:45;;;;;;;3.50;0.40;;;10.60;94.50;;;;;;5050070;28;20035;-77
2023/04/25 11:06:29;;;;;;;3.08;0.40;;;10.40;94.40;;;;;;5052074;28;20013;-77
2023/04/25 11:08:55;;;;;;;4.30;0.40;;;10.30;95.40;;;;;;5052958;28;20061;-77
2023/04/25 11:11:20;;;;;;;3.92;0.40;;;10.20;96.40;;;;;;5052165;28;20122;-78
2023/04/25 11:13:50;;;;;;;6.30;0.50;;;10.20;98.00;;;;;;5056017;28;20044;-78
2023/04/25 11:16:17;;;;;;;3.15;0.30;;;10.40;98.00;;;;;;5041925;28;20052;-78
2023/04/25 11:18:44;;;;;;;4.68;0.30;;;10.40;98.20;;;;;;5048995;28;20146;-78
2023/04/25 11:21:10;;;;;;;4.80;0.40;;;10.50;98.20;;;;;;5050056;28;20468;-77
2023/04/25 11:23:36;;;;;;;7.65;0.52;;;10.50;98.30;;;;;;5052376;28;20025;-77
2023/04/25 11:26:03;;;;;;;6.80;0.63;;;10.50;98.00;;;;;;5051887;28;20017;-77
2023/04/25 11:28:28;;;;;;;4.28;0.30;;;10.60;98.00;;;;;;5050460;28;20025;-77
2023/04/25 11:30:54;;;;;;;5.82;0.32;;;10.70;97.40;;;;;;5051230;28;20025;-77
2023/04/25 11:33:24;;;;;;;4.72;0.40;;;10.70;96.80;;;;;;5051960;28;20092;-77
2023/04/25 11:35:49;;;;;;;3.22;0.43;;;10.80;94.60;;;;;;5049982;28;20132;-77
2023/04/25 11:38:15;;;;;;;3.15;0.30;;;10.80;94.40;;;;;;5043449;28;20437;-77
2023/04/25 11:40:41;;;;;;;3.22;0.30;;;10.80;94.90;;;;;;5047544;28;20485;-78
2023/04/25 11:43:06;;;;;;;2.47;0.25;;;11.00;95.80;;;;;;5051548;28;20029;-77
2023/04/25 11:45:32;;;;;;;3.28;0.30;;;11.20;95.50;;;;;;5049677;28;20397;-76
2023/04/25 11:47:58;;;;;;;5.30;0.40;;;11.30;94.50;;;;;;5052120;28;20033;-77
2023/04/25 11:50:23;;;;;;;2.42;0.30;;;11.20;94.60;;;;;;5051362;28;20029;-77
2023/04/25 11:52:50;;;;;;;4.15;0.30;;;11.30;94.90;;;;;;5051064;28;20025;-77
2023/04/25 11:55:20;;;;;;;5.60;0.30;;;11.30;95.30;;;;;;5050674;28;20114;-77
2023/04/25 11:57:51;;;;;;;5.63;0.40;;;11.40;95.20;;;;;;5051901;28;20372;-77
2023/04/25 12:00:20;;;;;;;4.55;0.40;;;11.30;95.70;;;;;;5051860;28;20048;-77
2023/04/25 12:02:53;;;;;;;4.82;0.40;;;11.30;95.70;;;;;;5048911;28;20029;-77
2023/04/25 12:05:20;;;;;;;5.95;0.63;;;11.40;96.00;;;;;;5042963;28;21016;-77
2023/04/25 12:07:46;;;;;;;3.47;0.30;;;11.50;95.60;;;;;;5051179;28;20017;-78
2023/04/25 12:10:15;;;;;;;4.93;0.40;;;11.40;96.00;;;;;;5050223;28;20174;-78
2023/04/25 12:12:46;;;;;;;5.85;0.40;;;11.60;96.70;;;;;;5049461;28;20028;-77
2023/04/25 12:15:19;;;;;;;3.25;0.30;;;11.90;95.90;;;;;;5051090;28;20029;-78
2023/04/25 12:17:49;;;;;;;1.58;0.30;;;12.10;94.80;;;;;;5041774;28;20022;-78
2023/04/25 12:20:20;;;;;;;5.50;0.38;;;11.90;94.10;;;;;;5054914;28;20025;-79
2023/04/25 12:22:48;;;;;;;6.35;0.47;;;11.70;93.70;;;;;;5055896;28;20024;-79
2023/04/25 12:25:44;;;;;;;4.05;0.40;;;11.60;94.80;;;;;;5054934;28;20021;-77
2023/04/25 12:28:23;;;;;;;5.13;0.40;;;11.90;95.10;;;;;;5053455;28;20028;-78
2023/04/25 12:30:52;;;;;;;3.42;0.30;;;12.10;92.40;;;;;;5056621;28;20095;-78
2023/04/25 12:33:18;;;;;;;3.38;0.95;;;12.10;92.40;;;;;;5055084;28;20021;-77
2023/04/25 12:35:43;;;;;;;5.30;0.40;;;11.90;92.70;;;;;;5055346;28;20033;-77
2023/04/25 12:38:09;;;;;;;6.63;0.38;;;11.70;93.10;;;;;;5053916;28;20485;-78
2023/04/25 12:40:34;;;;;;;5.93;0.32;;;11.30;93.30;;;;;;5054684;28;20396;-77
2023/04/25 12:43:00;;;;;;;2.70;0.40;;;10.80;93.70;;;;;;5053321;28;20711;-78
2023/04/25 12:45:25;;;;;;;4.38;0.65;;;10.50;94.90;;;;;;5054611;28;20036;-78
2023/04/25 12:47:51;;;;;;;3.63;0.38;;;10.50;96.30;;;;;;5053366;28;20025;-77
2023/04/25 12:50:17;;;;;;;2.85;0.38;;;10.60;96.90;;;;;;5053829;28;20039;-78